Главная страница
METAR-TAF:

METAR-TAF

Аэропорты :

Тонгатапу, Тонга

Международный аэропорт Фуаамоту

широта: 21-14S, долгота: 175-09W, высота над уровнем моря: 38 м

Текущие метеонаблюдения

Эта сводка был подготовлена 45 минут назад, в 09:00 UTC
Штиль
Температура 26°C
Влажность 89%
Давление 1009 hPa
Видимость 10 км и более
Отдельные облака на высоте 1600 фута
Рассеянная облачность на высоте 12000 фута

METAR: NFTF 240900Z 00000KT 9999 SCT016 BKN120 26/24 Q1009

Время: 22:45 (09:45 UTC)

Прогноз

Эта сводка был подготовлена 4 часа и 28 минут назад, в 05:17 UTC
Прогноз действительный с 24-го 06 UTC до 25-го 06 UTC
Ветер 9 Узел от восточно-юго-восточный
Видимость 10 км и более
небольшая облачность на высоте 1000 фута
Отдельные облака на высоте 1700 фута
Вероятность 30% :
временами
С 24-го 09 UTC до 24-го 18 UTC
Видимость: 6000 м
Рассеянная облачность на высоте 1500 фута
ливневые дожди

TAF: NFTF 240517Z 2406/2506 12009KT 9999 FEW010 SCT017 PROB30 TEMPO 2409/2418 6000 SHRA BKN015

Метеонаблюдения и прогнозы для более 4000 аэропортов (сводки METAR и TAF).

Имеющиеся станции представлены на карте желтыми и красными точками.

Чтобы увидеть название станции, наведите на нее мышь.

Затем щелкните, чтобы увидеть метеонаблюдения и метеопрогнозы.

Управление картой: чтобы увеличить масштаб, щелкните зеленые кнопки с черным крестиком; чтобы уменьшить масштаб, щелкните зеленую кнопку с тире; для просмотра соседних карт щелкайте зеленые стрелки.


METAR-TAF: